sensor_id;sensor_type;location;lat;lon;timestamp;pressure;altitude;pressure_sealevel;temperature;humidity
24302;BME280;12421;49.732;20.078;2023-03-24T00:03:41;96363.98;;;13.69;56.68
24302;BME280;12421;49.732;20.078;2023-03-24T00:13:47;96374.38;;;13.59;56.73
24302;BME280;12421;49.732;20.078;2023-03-24T00:23:54;96365.30;;;13.39;57.17
24302;BME280;12421;49.732;20.078;2023-03-24T00:33:58;96365.34;;;13.15;57.60
24302;BME280;12421;49.732;20.078;2023-03-24T00:44:02;96368.05;;;13.00;57.75
24302;BME280;12421;49.732;20.078;2023-03-24T00:54:10;96364.35;;;12.94;58.23
24302;BME280;12421;49.732;20.078;2023-03-24T01:04:14;96347.52;;;12.85;58.78
24302;BME280;12421;49.732;20.078;2023-03-24T01:14:17;96344.40;;;12.89;58.86
24302;BME280;12421;49.732;20.078;2023-03-24T01:24:21;96342.35;;;12.93;59.02
24302;BME280;12421;49.732;20.078;2023-03-24T01:34:27;96332.17;;;12.92;59.65
24302;BME280;12421;49.732;20.078;2023-03-24T01:44:35;96324.13;;;12.84;59.80
24302;BME280;12421;49.732;20.078;2023-03-24T01:54:45;96317.48;;;12.77;59.82
24302;BME280;12421;49.732;20.078;2023-03-24T02:04:58;96312.67;;;12.72;59.89
24302;BME280;12421;49.732;20.078;2023-03-24T02:15:09;96308.98;;;12.60;60.50
24302;BME280;12421;49.732;20.078;2023-03-24T02:36:23;96283.06;;;12.24;61.29
24302;BME280;12421;49.732;20.078;2023-03-24T02:46:35;96283.23;;;12.12;61.46
24302;BME280;12421;49.732;20.078;2023-03-24T02:56:54;96275.98;;;12.01;61.81
24302;BME280;12421;49.732;20.078;2023-03-24T03:07:29;96269.45;;;11.75;62.22
24302;BME280;12421;49.732;20.078;2023-03-24T03:17:43;96278.17;;;11.49;63.22
24302;BME280;12421;49.732;20.078;2023-03-24T03:27:59;96269.17;;;11.22;64.14
24302;BME280;12421;49.732;20.078;2023-03-24T03:48:16;96272.75;;;10.89;65.18
24302;BME280;12421;49.732;20.078;2023-03-24T03:58:20;96270.89;;;10.71;65.85
24302;BME280;12421;49.732;20.078;2023-03-24T04:09:00;96270.04;;;10.69;66.30
24302;BME280;12421;49.732;20.078;2023-03-24T04:40:12;96250.52;;;10.63;67.27
24302;BME280;12421;49.732;20.078;2023-03-24T04:50:30;96258.01;;;10.50;68.10
24302;BME280;12421;49.732;20.078;2023-03-24T05:00:36;96256.09;;;10.49;68.40
24302;BME280;12421;49.732;20.078;2023-03-24T05:10:40;96266.34;;;10.46;68.89
24302;BME280;12421;49.732;20.078;2023-03-24T05:20:43;96273.42;;;10.52;69.36
24302;BME280;12421;49.732;20.078;2023-03-24T05:30:52;96279.67;;;10.62;70.05
24302;BME280;12421;49.732;20.078;2023-03-24T05:41:16;96282.52;;;10.84;70.46
24302;BME280;12421;49.732;20.078;2023-03-24T05:51:20;96284.84;;;11.05;70.72
24302;BME280;12421;49.732;20.078;2023-03-24T06:01:31;96283.60;;;11.28;70.89
24302;BME280;12421;49.732;20.078;2023-03-24T06:11:49;96282.39;;;11.57;71.45
24302;BME280;12421;49.732;20.078;2023-03-24T06:21:53;96287.71;;;11.83;71.40
24302;BME280;12421;49.732;20.078;2023-03-24T06:31:59;96293.69;;;12.02;71.91
24302;BME280;12421;49.732;20.078;2023-03-24T06:42:03;96295.85;;;12.26;71.82
24302;BME280;12421;49.732;20.078;2023-03-24T06:52:07;96298.92;;;12.55;72.27
24302;BME280;12421;49.732;20.078;2023-03-24T07:02:13;96298.36;;;12.85;72.87
24302;BME280;12421;49.732;20.078;2023-03-24T07:12:20;96294.40;;;13.18;72.78
24302;BME280;12421;49.732;20.078;2023-03-24T07:22:25;96288.48;;;13.43;73.31
24302;BME280;12421;49.732;20.078;2023-03-24T07:32:48;96287.92;;;13.70;73.47
24302;BME280;12421;49.732;20.078;2023-03-24T07:42:53;96275.20;;;14.07;73.41
24302;BME280;12421;49.732;20.078;2023-03-24T07:53:20;96259.45;;;14.38;71.80
24302;BME280;12421;49.732;20.078;2023-03-24T08:03:24;96235.70;;;14.77;70.46
24302;BME280;12421;49.732;20.078;2023-03-24T08:13:54;96218.31;;;15.28;67.45
24302;BME280;12421;49.732;20.078;2023-03-24T08:23:58;96208.98;;;15.69;64.35
24302;BME280;12421;49.732;20.078;2023-03-24T08:34:02;96201.02;;;15.82;63.18
24302;BME280;12421;49.732;20.078;2023-03-24T08:44:06;96194.52;;;16.17;63.03
24302;BME280;12421;49.732;20.078;2023-03-24T08:54:09;96184.54;;;16.72;61.82
24302;BME280;12421;49.732;20.078;2023-03-24T09:04:14;96162.55;;;17.24;59.91
24302;BME280;12421;49.732;20.078;2023-03-24T09:14:19;96130.52;;;17.85;58.97
24302;BME280;12421;49.732;20.078;2023-03-24T09:24:24;96114.38;;;18.46;57.26
24302;BME280;12421;49.732;20.078;2023-03-24T09:34:27;96103.17;;;18.97;54.72
24302;BME280;12421;49.732;20.078;2023-03-24T09:44:34;96091.19;;;19.23;53.66
24302;BME280;12421;49.732;20.078;2023-03-24T09:54:53;96084.11;;;19.25;52.03
24302;BME280;12421;49.732;20.078;2023-03-24T10:04:57;96073.44;;;19.13;51.38
24302;BME280;12421;49.732;20.078;2023-03-24T10:36:05;96040.27;;;20.08;46.32
24302;BME280;12421;49.732;20.078;2023-03-24T10:46:13;96035.61;;;20.37;45.45
24302;BME280;12421;49.732;20.078;2023-03-24T10:56:40;96031.40;;;20.52;44.31
24302;BME280;12421;49.732;20.078;2023-03-24T11:07:00;96017.32;;;20.71;43.64
24302;BME280;12421;49.732;20.078;2023-03-24T11:17:12;96012.81;;;20.64;43.46
24302;BME280;12421;49.732;20.078;2023-03-24T11:27:18;96003.16;;;21.02;43.15
24302;BME280;12421;49.732;20.078;2023-03-24T11:37:25;95989.39;;;21.56;43.24
24302;BME280;12421;49.732;20.078;2023-03-24T11:47:36;95970.78;;;22.27;42.55
24302;BME280;12421;49.732;20.078;2023-03-24T11:57:54;95955.73;;;22.50;41.17
24302;BME280;12421;49.732;20.078;2023-03-24T12:18:24;95946.73;;;22.31;40.65
24302;BME280;12421;49.732;20.078;2023-03-24T12:28:50;95944.07;;;22.11;40.24
24302;BME280;12421;49.732;20.078;2023-03-24T12:59:34;95929.90;;;22.12;40.26
24302;BME280;12421;49.732;20.078;2023-03-24T13:20:04;95905.06;;;22.12;40.92
24302;BME280;12421;49.732;20.078;2023-03-24T13:30:30;95892.70;;;21.80;40.65
24302;BME280;12421;49.732;20.078;2023-03-24T13:40:37;95884.14;;;21.64;40.58
24302;BME280;12421;49.732;20.078;2023-03-24T13:51:00;95880.32;;;21.46;40.80
24302;BME280;12421;49.732;20.078;2023-03-24T14:21:42;95865.59;;;20.62;39.85
24302;BME280;12421;49.732;20.078;2023-03-24T14:31:49;95863.13;;;20.24;39.44
24302;BME280;12421;49.732;20.078;2023-03-24T14:41:54;95851.54;;;19.95;39.39
24302;BME280;12421;49.732;20.078;2023-03-24T14:52:11;95845.58;;;19.80;39.70
24302;BME280;12421;49.732;20.078;2023-03-24T15:02:39;95844.03;;;19.68;38.82
24302;BME280;12421;49.732;20.078;2023-03-24T15:12:47;95838.39;;;19.50;38.22
24302;BME280;12421;49.732;20.078;2023-03-24T15:22:51;95830.86;;;19.28;38.92
24302;BME280;12421;49.732;20.078;2023-03-24T15:32:58;95828.65;;;19.09;39.29
24302;BME280;12421;49.732;20.078;2023-03-24T15:43:06;95825.80;;;18.83;38.78
24302;BME280;12421;49.732;20.078;2023-03-24T15:53:23;95827.42;;;18.63;39.31
24302;BME280;12421;49.732;20.078;2023-03-24T16:03:29;95828.96;;;18.34;40.07
24302;BME280;12421;49.732;20.078;2023-03-24T16:13:40;95838.36;;;18.07;40.37
24302;BME280;12421;49.732;20.078;2023-03-24T16:23:46;95844.76;;;17.76;42.25
24302;BME280;12421;49.732;20.078;2023-03-24T16:33:53;95851.58;;;17.46;43.72
24302;BME280;12421;49.732;20.078;2023-03-24T16:44:00;95853.51;;;17.11;44.63
24302;BME280;12421;49.732;20.078;2023-03-24T16:54:03;95853.38;;;16.80;45.76
24302;BME280;12421;49.732;20.078;2023-03-24T17:04:15;95848.93;;;16.53;46.39
24302;BME280;12421;49.732;20.078;2023-03-24T17:14:19;95858.67;;;16.35;46.99
24302;BME280;12421;49.732;20.078;2023-03-24T17:24:24;95856.98;;;16.27;46.86
24302;BME280;12421;49.732;20.078;2023-03-24T17:34:27;95855.95;;;16.19;46.99
24302;BME280;12421;49.732;20.078;2023-03-24T17:44:31;95863.96;;;16.11;47.29
24302;BME280;12421;49.732;20.078;2023-03-24T17:54:34;95866.87;;;16.06;47.78
24302;BME280;12421;49.732;20.078;2023-03-24T18:04:38;95863.80;;;15.93;48.62
24302;BME280;12421;49.732;20.078;2023-03-24T18:14:41;95866.38;;;15.88;48.39
24302;BME280;12421;49.732;20.078;2023-03-24T18:24:44;95868.85;;;15.85;48.62
24302;BME280;12421;49.732;20.078;2023-03-24T18:34:47;95873.06;;;15.78;48.93
24302;BME280;12421;49.732;20.078;2023-03-24T18:44:52;95875.00;;;15.75;48.61
24302;BME280;12421;49.732;20.078;2023-03-24T18:54:55;95891.94;;;15.76;48.49
24302;BME280;12421;49.732;20.078;2023-03-24T19:04:59;95886.73;;;15.70;48.82
24302;BME280;12421;49.732;20.078;2023-03-24T19:15:04;95895.64;;;15.61;49.59
24302;BME280;12421;49.732;20.078;2023-03-24T19:25:08;95913.79;;;15.48;51.25
24302;BME280;12421;49.732;20.078;2023-03-24T19:35:11;95917.70;;;15.27;52.45
24302;BME280;12421;49.732;20.078;2023-03-24T19:45:16;95904.88;;;15.06;52.70
24302;BME280;12421;49.732;20.078;2023-03-24T19:55:19;95900.70;;;14.93;53.52
24302;BME280;12421;49.732;20.078;2023-03-24T20:05:22;95896.88;;;14.76;54.44
24302;BME280;12421;49.732;20.078;2023-03-24T20:15:26;95905.15;;;14.61;55.77
24302;BME280;12421;49.732;20.078;2023-03-24T20:25:29;95889.54;;;14.45;56.97
24302;BME280;12421;49.732;20.078;2023-03-24T20:35:32;95883.70;;;14.25;58.16
24302;BME280;12421;49.732;20.078;2023-03-24T20:45:38;95881.50;;;14.14;58.50
24302;BME280;12421;49.732;20.078;2023-03-24T20:55:42;95880.60;;;14.02;59.00
24302;BME280;12421;49.732;20.078;2023-03-24T21:05:51;95880.67;;;13.91;59.39
24302;BME280;12421;49.732;20.078;2023-03-24T21:15:54;95878.44;;;13.85;59.57
24302;BME280;12421;49.732;20.078;2023-03-24T21:25:57;95880.17;;;13.81;60.12
24302;BME280;12421;49.732;20.078;2023-03-24T21:36:00;95882.55;;;13.75;60.49
24302;BME280;12421;49.732;20.078;2023-03-24T21:46:04;95864.84;;;13.68;61.30
24302;BME280;12421;49.732;20.078;2023-03-24T21:56:08;95859.27;;;13.54;63.15
24302;BME280;12421;49.732;20.078;2023-03-24T22:06:11;95870.58;;;13.26;66.11
24302;BME280;12421;49.732;20.078;2023-03-24T22:16:14;95868.42;;;13.03;67.80
24302;BME280;12421;49.732;20.078;2023-03-24T22:26:17;95873.67;;;12.90;68.77
24302;BME280;12421;49.732;20.078;2023-03-24T22:36:20;95870.30;;;12.81;69.20
24302;BME280;12421;49.732;20.078;2023-03-24T22:46:24;95864.50;;;12.57;70.03
24302;BME280;12421;49.732;20.078;2023-03-24T22:56:28;95862.63;;;12.30;70.83
24302;BME280;12421;49.732;20.078;2023-03-24T23:06:31;95849.09;;;12.04;71.81
24302;BME280;12421;49.732;20.078;2023-03-24T23:16:37;95831.84;;;11.90;72.55
24302;BME280;12421;49.732;20.078;2023-03-24T23:26:40;95829.77;;;11.78;73.29
24302;BME280;12421;49.732;20.078;2023-03-24T23:36:43;95822.92;;;11.77;73.53
24302;BME280;12421;49.732;20.078;2023-03-24T23:46:51;95812.38;;;11.72;73.60
24302;BME280;12421;49.732;20.078;2023-03-24T23:56:55;95806.59;;;11.56;73.80
